Terminal Aerodrome Forecast
Issued by NWS Jacksonville, FL

Home | Current Version | Previous Version | Text Only | Print | Product List | Glossary On
Versions: 1 2 3 4 5 6 7 8 9 10 11 12
140
FTUS42 KJAX 261120
TAFSSI
TAF
KSSI 261120Z 2612/2712 14005KT P6SM FEW250
     FM261500 11011KT P6SM FEW040
     FM270200 12006KT P6SM SKC=

USA.gov is the U.S. government's official web portal to all federal, state and local government web resources and services.